sensor_id;sensor_type;location;lat;lon;timestamp;P1;durP1;ratioP1;P2;durP2;ratioP2
55461;SDS011;41327;45.102;20.624;2024-01-11T00:00:31;174.35;;;162.43;;
55461;SDS011;41327;45.102;20.624;2024-01-11T00:02:57;133.93;;;124.07;;
55461;SDS011;41327;45.102;20.624;2024-01-11T00:05:22;214.65;;;201.90;;
55461;SDS011;41327;45.102;20.624;2024-01-11T00:07:48;139.98;;;129.77;;
55461;SDS011;41327;45.102;20.624;2024-01-11T00:10:14;180.65;;;169.10;;
55461;SDS011;41327;45.102;20.624;2024-01-11T00:12:39;178.50;;;167.43;;
55461;SDS011;41327;45.102;20.624;2024-01-11T00:15:05;252.45;;;238.48;;
55461;SDS011;41327;45.102;20.624;2024-01-11T00:17:31;256.50;;;242.35;;
55461;SDS011;41327;45.102;20.624;2024-01-11T00:19:56;210.15;;;198.38;;
55461;SDS011;41327;45.102;20.624;2024-01-11T00:22:22;247.40;;;234.07;;
55461;SDS011;41327;45.102;20.624;2024-01-11T00:24:47;150.98;;;142.07;;
55461;SDS011;41327;45.102;20.624;2024-01-11T00:27:13;130.25;;;121.95;;
55461;SDS011;41327;45.102;20.624;2024-01-11T00:29:39;130.88;;;122.13;;
55461;SDS011;41327;45.102;20.624;2024-01-11T00:32:04;137.05;;;127.80;;
55461;SDS011;41327;45.102;20.624;2024-01-11T00:34:30;138.90;;;129.65;;
55461;SDS011;41327;45.102;20.624;2024-01-11T00:36:55;206.32;;;195.82;;
55461;SDS011;41327;45.102;20.624;2024-01-11T00:39:21;248.20;;;235.02;;
55461;SDS011;41327;45.102;20.624;2024-01-11T00:41:47;136.52;;;128.73;;
55461;SDS011;41327;45.102;20.624;2024-01-11T00:44:12;141.98;;;133.55;;
55461;SDS011;41327;45.102;20.624;2024-01-11T00:46:39;142.45;;;134.27;;
55461;SDS011;41327;45.102;20.624;2024-01-11T00:49:05;151.95;;;142.32;;
55461;SDS011;41327;45.102;20.624;2024-01-11T00:51:30;178.20;;;168.00;;
55461;SDS011;41327;45.102;20.624;2024-01-11T00:53:56;124.55;;;117.18;;
55461;SDS011;41327;45.102;20.624;2024-01-11T00:56:21;133.32;;;125.13;;
55461;SDS011;41327;45.102;20.624;2024-01-11T00:58:47;128.40;;;120.55;;
55461;SDS011;41327;45.102;20.624;2024-01-11T01:01:12;99.72;;;93.28;;
55461;SDS011;41327;45.102;20.624;2024-01-11T01:03:38;117.05;;;109.63;;
55461;SDS011;41327;45.102;20.624;2024-01-11T01:06:04;111.03;;;104.40;;
55461;SDS011;41327;45.102;20.624;2024-01-11T01:08:31;151.95;;;142.55;;
55461;SDS011;41327;45.102;20.624;2024-01-11T01:10:56;114.88;;;106.63;;
55461;SDS011;41327;45.102;20.624;2024-01-11T01:13:22;182.75;;;172.38;;
55461;SDS011;41327;45.102;20.624;2024-01-11T01:15:48;124.75;;;116.55;;
55461;SDS011;41327;45.102;20.624;2024-01-11T01:18:13;163.90;;;153.95;;
55461;SDS011;41327;45.102;20.624;2024-01-11T01:20:39;121.65;;;113.50;;
55461;SDS011;41327;45.102;20.624;2024-01-11T01:23:04;112.88;;;105.65;;
55461;SDS011;41327;45.102;20.624;2024-01-11T01:25:30;118.07;;;110.53;;
55461;SDS011;41327;45.102;20.624;2024-01-11T01:27:55;112.00;;;104.22;;
55461;SDS011;41327;45.102;20.624;2024-01-11T01:30:21;119.20;;;112.00;;
55461;SDS011;41327;45.102;20.624;2024-01-11T01:32:48;120.88;;;113.63;;
55461;SDS011;41327;45.102;20.624;2024-01-11T01:35:13;108.72;;;101.55;;
55461;SDS011;41327;45.102;20.624;2024-01-11T01:37:39;108.68;;;102.15;;
55461;SDS011;41327;45.102;20.624;2024-01-11T01:40:05;103.40;;;96.03;;
55461;SDS011;41327;45.102;20.624;2024-01-11T01:42:32;132.98;;;124.60;;
55461;SDS011;41327;45.102;20.624;2024-01-11T01:44:58;120.10;;;112.97;;
55461;SDS011;41327;45.102;20.624;2024-01-11T01:47:24;153.88;;;144.70;;
55461;SDS011;41327;45.102;20.624;2024-01-11T01:49:50;166.85;;;157.55;;
55461;SDS011;41327;45.102;20.624;2024-01-11T01:52:16;149.38;;;140.60;;
55461;SDS011;41327;45.102;20.624;2024-01-11T01:54:42;110.72;;;103.68;;
55461;SDS011;41327;45.102;20.624;2024-01-11T01:57:08;110.13;;;103.00;;
55461;SDS011;41327;45.102;20.624;2024-01-11T01:59:34;106.50;;;100.00;;
55461;SDS011;41327;45.102;20.624;2024-01-11T02:02:00;101.22;;;94.88;;
55461;SDS011;41327;45.102;20.624;2024-01-11T02:04:25;111.93;;;105.15;;
55461;SDS011;41327;45.102;20.624;2024-01-11T02:06:52;124.22;;;116.18;;
55461;SDS011;41327;45.102;20.624;2024-01-11T02:09:18;124.35;;;116.65;;
55461;SDS011;41327;45.102;20.624;2024-01-11T02:11:44;121.28;;;113.65;;
55461;SDS011;41327;45.102;20.624;2024-01-11T02:14:10;130.70;;;122.03;;
55461;SDS011;41327;45.102;20.624;2024-01-11T02:16:36;114.90;;;108.00;;
55461;SDS011;41327;45.102;20.624;2024-01-11T02:19:03;123.03;;;115.55;;
55461;SDS011;41327;45.102;20.624;2024-01-11T02:21:32;114.47;;;107.13;;
55461;SDS011;41327;45.102;20.624;2024-01-11T02:26:30;102.55;;;96.88;;
55461;SDS011;41327;45.102;20.624;2024-01-11T02:28:55;129.02;;;120.30;;
55461;SDS011;41327;45.102;20.624;2024-01-11T02:31:21;124.22;;;115.82;;
55461;SDS011;41327;45.102;20.624;2024-01-11T02:33:47;110.18;;;102.50;;
55461;SDS011;41327;45.102;20.624;2024-01-11T02:36:13;130.52;;;122.57;;
55461;SDS011;41327;45.102;20.624;2024-01-11T02:38:38;149.05;;;140.35;;
55461;SDS011;41327;45.102;20.624;2024-01-11T02:41:07;133.95;;;125.88;;
55461;SDS011;41327;45.102;20.624;2024-01-11T02:43:33;111.80;;;105.28;;
55461;SDS011;41327;45.102;20.624;2024-01-11T02:46:01;130.48;;;122.00;;
55461;SDS011;41327;45.102;20.624;2024-01-11T02:48:30;122.93;;;115.30;;
55461;SDS011;41327;45.102;20.624;2024-01-11T02:50:57;129.23;;;121.25;;
55461;SDS011;41327;45.102;20.624;2024-01-11T02:53:23;122.93;;;115.50;;
55461;SDS011;41327;45.102;20.624;2024-01-11T02:55:49;116.75;;;109.78;;
55461;SDS011;41327;45.102;20.624;2024-01-11T02:58:15;133.60;;;124.38;;
55461;SDS011;41327;45.102;20.624;2024-01-11T03:00:41;126.85;;;117.75;;
55461;SDS011;41327;45.102;20.624;2024-01-11T03:03:06;143.00;;;134.43;;
55461;SDS011;41327;45.102;20.624;2024-01-11T03:05:32;129.23;;;121.47;;
55461;SDS011;41327;45.102;20.624;2024-01-11T03:07:58;122.50;;;114.88;;
55461;SDS011;41327;45.102;20.624;2024-01-11T03:10:23;122.03;;;114.65;;
55461;SDS011;41327;45.102;20.624;2024-01-11T03:12:49;111.57;;;105.03;;
55461;SDS011;41327;45.102;20.624;2024-01-11T03:15:15;111.22;;;103.88;;
55461;SDS011;41327;45.102;20.624;2024-01-11T03:17:41;135.40;;;126.80;;
55461;SDS011;41327;45.102;20.624;2024-01-11T03:20:06;115.53;;;108.22;;
55461;SDS011;41327;45.102;20.624;2024-01-11T03:22:33;115.50;;;108.22;;
55461;SDS011;41327;45.102;20.624;2024-01-11T03:24:58;130.32;;;122.25;;
55461;SDS011;41327;45.102;20.624;2024-01-11T03:27:24;112.85;;;105.82;;
55461;SDS011;41327;45.102;20.624;2024-01-11T03:29:50;122.90;;;114.07;;
55461;SDS011;41327;45.102;20.624;2024-01-11T03:32:15;137.10;;;128.68;;
55461;SDS011;41327;45.102;20.624;2024-01-11T03:34:41;138.85;;;130.35;;
55461;SDS011;41327;45.102;20.624;2024-01-11T03:37:06;115.85;;;108.10;;
55461;SDS011;41327;45.102;20.624;2024-01-11T03:39:33;123.82;;;116.07;;
55461;SDS011;41327;45.102;20.624;2024-01-11T03:41:59;152.30;;;142.95;;
55461;SDS011;41327;45.102;20.624;2024-01-11T03:44:24;147.00;;;138.00;;
55461;SDS011;41327;45.102;20.624;2024-01-11T03:46:50;159.82;;;150.68;;
55461;SDS011;41327;45.102;20.624;2024-01-11T03:49:16;140.43;;;131.40;;
55461;SDS011;41327;45.102;20.624;2024-01-11T03:51:42;137.68;;;130.00;;
55461;SDS011;41327;45.102;20.624;2024-01-11T03:54:07;135.55;;;128.18;;
55461;SDS011;41327;45.102;20.624;2024-01-11T03:56:33;137.27;;;129.10;;
55461;SDS011;41327;45.102;20.624;2024-01-11T03:58:58;160.50;;;151.35;;
55461;SDS011;41327;45.102;20.624;2024-01-11T04:01:24;165.48;;;156.38;;
55461;SDS011;41327;45.102;20.624;2024-01-11T04:03:49;133.65;;;125.80;;
55461;SDS011;41327;45.102;20.624;2024-01-11T04:06:20;194.63;;;183.32;;
55461;SDS011;41327;45.102;20.624;2024-01-11T04:08:46;169.52;;;159.93;;
55461;SDS011;41327;45.102;20.624;2024-01-11T04:11:12;141.68;;;133.20;;
55461;SDS011;41327;45.102;20.624;2024-01-11T04:13:38;184.73;;;174.60;;
55461;SDS011;41327;45.102;20.624;2024-01-11T04:16:05;184.45;;;173.88;;
55461;SDS011;41327;45.102;20.624;2024-01-11T04:18:31;132.50;;;124.35;;
55461;SDS011;41327;45.102;20.624;2024-01-11T04:20:57;145.88;;;137.18;;
55461;SDS011;41327;45.102;20.624;2024-01-11T04:23:23;147.20;;;138.05;;
55461;SDS011;41327;45.102;20.624;2024-01-11T04:25:49;125.57;;;118.32;;
55461;SDS011;41327;45.102;20.624;2024-01-11T04:28:16;134.60;;;126.70;;
55461;SDS011;41327;45.102;20.624;2024-01-11T04:30:42;122.28;;;114.97;;
55461;SDS011;41327;45.102;20.624;2024-01-11T04:33:08;132.43;;;124.93;;
55461;SDS011;41327;45.102;20.624;2024-01-11T04:35:34;132.52;;;124.07;;
55461;SDS011;41327;45.102;20.624;2024-01-11T04:38:00;135.90;;;127.55;;
55461;SDS011;41327;45.102;20.624;2024-01-11T04:40:25;135.82;;;127.80;;
55461;SDS011;41327;45.102;20.624;2024-01-11T04:42:51;143.82;;;135.52;;
55461;SDS011;41327;45.102;20.624;2024-01-11T04:45:16;144.13;;;135.60;;
55461;SDS011;41327;45.102;20.624;2024-01-11T04:47:42;157.95;;;149.52;;
55461;SDS011;41327;45.102;20.624;2024-01-11T04:50:07;133.82;;;126.45;;
55461;SDS011;41327;45.102;20.624;2024-01-11T04:52:33;161.52;;;151.90;;
55461;SDS011;41327;45.102;20.624;2024-01-11T04:54:59;165.93;;;156.48;;
55461;SDS011;41327;45.102;20.624;2024-01-11T04:57:24;167.40;;;156.88;;
55461;SDS011;41327;45.102;20.624;2024-01-11T04:59:50;175.50;;;165.32;;
55461;SDS011;41327;45.102;20.624;2024-01-11T05:02:16;167.43;;;158.00;;
55461;SDS011;41327;45.102;20.624;2024-01-11T05:04:41;137.82;;;129.57;;
55461;SDS011;41327;45.102;20.624;2024-01-11T05:07:07;175.27;;;165.93;;
55461;SDS011;41327;45.102;20.624;2024-01-11T05:09:32;189.02;;;178.93;;
55461;SDS011;41327;45.102;20.624;2024-01-11T05:11:58;224.15;;;212.10;;
55461;SDS011;41327;45.102;20.624;2024-01-11T05:14:23;185.85;;;176.20;;
55461;SDS011;41327;45.102;20.624;2024-01-11T05:16:49;152.45;;;143.63;;
55461;SDS011;41327;45.102;20.624;2024-01-11T05:19:15;238.52;;;226.25;;
55461;SDS011;41327;45.102;20.624;2024-01-11T05:21:41;208.73;;;197.55;;
55461;SDS011;41327;45.102;20.624;2024-01-11T05:24:06;198.50;;;188.60;;
55461;SDS011;41327;45.102;20.624;2024-01-11T05:26:32;227.73;;;216.02;;
55461;SDS011;41327;45.102;20.624;2024-01-11T05:28:57;179.38;;;169.82;;
55461;SDS011;41327;45.102;20.624;2024-01-11T05:31:23;208.82;;;198.38;;
55461;SDS011;41327;45.102;20.624;2024-01-11T05:33:49;154.35;;;145.18;;
55461;SDS011;41327;45.102;20.624;2024-01-11T05:36:15;210.43;;;198.88;;
55461;SDS011;41327;45.102;20.624;2024-01-11T05:38:40;140.95;;;132.38;;
55461;SDS011;41327;45.102;20.624;2024-01-11T05:41:06;142.02;;;134.32;;
55461;SDS011;41327;45.102;20.624;2024-01-11T05:43:32;165.02;;;155.18;;
55461;SDS011;41327;45.102;20.624;2024-01-11T05:45:57;162.05;;;152.45;;
55461;SDS011;41327;45.102;20.624;2024-01-11T05:48:24;249.45;;;236.20;;
55461;SDS011;41327;45.102;20.624;2024-01-11T05:50:49;249.73;;;236.40;;
55461;SDS011;41327;45.102;20.624;2024-01-11T05:53:15;199.00;;;187.82;;
55461;SDS011;41327;45.102;20.624;2024-01-11T05:55:42;186.70;;;176.32;;
55461;SDS011;41327;45.102;20.624;2024-01-11T05:58:08;140.77;;;131.60;;
55461;SDS011;41327;45.102;20.624;2024-01-11T06:00:33;132.15;;;123.45;;
55461;SDS011;41327;45.102;20.624;2024-01-11T06:02:59;130.18;;;121.45;;
55461;SDS011;41327;45.102;20.624;2024-01-11T06:05:25;154.63;;;145.00;;
55461;SDS011;41327;45.102;20.624;2024-01-11T06:07:51;136.55;;;128.65;;
55461;SDS011;41327;45.102;20.624;2024-01-11T06:10:17;171.15;;;161.02;;
55461;SDS011;41327;45.102;20.624;2024-01-11T06:12:42;169.02;;;159.27;;
55461;SDS011;41327;45.102;20.624;2024-01-11T06:15:08;167.63;;;158.02;;
55461;SDS011;41327;45.102;20.624;2024-01-11T06:17:35;142.27;;;134.13;;
55461;SDS011;41327;45.102;20.624;2024-01-11T06:20:01;141.52;;;133.52;;
55461;SDS011;41327;45.102;20.624;2024-01-11T06:22:27;144.43;;;135.75;;
55461;SDS011;41327;45.102;20.624;2024-01-11T06:24:52;133.85;;;125.82;;
55461;SDS011;41327;45.102;20.624;2024-01-11T06:27:18;298.40;;;236.73;;
55461;SDS011;41327;45.102;20.624;2024-01-11T06:29:44;209.75;;;187.35;;
55461;SDS011;41327;45.102;20.624;2024-01-11T06:32:09;152.57;;;140.77;;
55461;SDS011;41327;45.102;20.624;2024-01-11T06:34:35;145.40;;;135.27;;
55461;SDS011;41327;45.102;20.624;2024-01-11T06:37:02;123.50;;;115.60;;
55461;SDS011;41327;45.102;20.624;2024-01-11T06:39:28;180.40;;;169.55;;
55461;SDS011;41327;45.102;20.624;2024-01-11T06:41:55;133.95;;;125.45;;
55461;SDS011;41327;45.102;20.624;2024-01-11T06:44:20;186.82;;;175.80;;
55461;SDS011;41327;45.102;20.624;2024-01-11T06:46:46;157.30;;;146.93;;
55461;SDS011;41327;45.102;20.624;2024-01-11T06:49:12;134.23;;;125.38;;
55461;SDS011;41327;45.102;20.624;2024-01-11T06:51:37;173.52;;;161.00;;
55461;SDS011;41327;45.102;20.624;2024-01-11T06:54:04;156.43;;;146.50;;
55461;SDS011;41327;45.102;20.624;2024-01-11T06:56:30;139.70;;;131.10;;
55461;SDS011;41327;45.102;20.624;2024-01-11T06:58:55;175.65;;;164.25;;
55461;SDS011;41327;45.102;20.624;2024-01-11T07:01:21;198.77;;;186.85;;
55461;SDS011;41327;45.102;20.624;2024-01-11T07:03:47;244.45;;;228.40;;
55461;SDS011;41327;45.102;20.624;2024-01-11T07:06:13;213.13;;;199.82;;
55461;SDS011;41327;45.102;20.624;2024-01-11T07:08:39;272.85;;;257.27;;
55461;SDS011;41327;45.102;20.624;2024-01-11T07:11:04;258.88;;;243.65;;
55461;SDS011;41327;45.102;20.624;2024-01-11T07:13:30;242.27;;;227.45;;
55461;SDS011;41327;45.102;20.624;2024-01-11T07:15:56;172.50;;;160.27;;
55461;SDS011;41327;45.102;20.624;2024-01-11T07:18:23;161.73;;;151.35;;
55461;SDS011;41327;45.102;20.624;2024-01-11T07:20:50;175.95;;;165.07;;
55461;SDS011;41327;45.102;20.624;2024-01-11T07:23:16;276.60;;;254.82;;
55461;SDS011;41327;45.102;20.624;2024-01-11T07:25:42;194.38;;;178.25;;
55461;SDS011;41327;45.102;20.624;2024-01-11T07:28:07;145.75;;;135.65;;
55461;SDS011;41327;45.102;20.624;2024-01-11T07:30:33;147.30;;;136.05;;
55461;SDS011;41327;45.102;20.624;2024-01-11T07:32:59;156.95;;;145.60;;
55461;SDS011;41327;45.102;20.624;2024-01-11T07:35:25;134.27;;;124.97;;
55461;SDS011;41327;45.102;20.624;2024-01-11T07:37:50;134.68;;;125.07;;
55461;SDS011;41327;45.102;20.624;2024-01-11T07:40:16;174.38;;;163.98;;
55461;SDS011;41327;45.102;20.624;2024-01-11T07:42:42;146.10;;;135.85;;
55461;SDS011;41327;45.102;20.624;2024-01-11T07:45:08;124.20;;;116.15;;
55461;SDS011;41327;45.102;20.624;2024-01-11T07:47:37;128.43;;;119.80;;
55461;SDS011;41327;45.102;20.624;2024-01-11T07:50:03;127.95;;;118.50;;
55461;SDS011;41327;45.102;20.624;2024-01-11T07:52:32;138.20;;;128.77;;
55461;SDS011;41327;45.102;20.624;2024-01-11T07:54:58;172.43;;;161.90;;
55461;SDS011;41327;45.102;20.624;2024-01-11T07:57:31;148.45;;;138.82;;
55461;SDS011;41327;45.102;20.624;2024-01-11T07:59:58;131.25;;;122.00;;
55461;SDS011;41327;45.102;20.624;2024-01-11T08:02:24;125.78;;;117.22;;
55461;SDS011;41327;45.102;20.624;2024-01-11T08:04:50;163.43;;;151.82;;
55461;SDS011;41327;45.102;20.624;2024-01-11T08:07:15;148.40;;;139.20;;
55461;SDS011;41327;45.102;20.624;2024-01-11T08:09:41;156.27;;;145.98;;
55461;SDS011;41327;45.102;20.624;2024-01-11T08:12:10;169.60;;;158.10;;
55461;SDS011;41327;45.102;20.624;2024-01-11T08:14:36;151.70;;;141.52;;
55461;SDS011;41327;45.102;20.624;2024-01-11T08:17:02;132.43;;;122.50;;
55461;SDS011;41327;45.102;20.624;2024-01-11T08:19:30;124.90;;;114.95;;
55461;SDS011;41327;45.102;20.624;2024-01-11T08:21:58;189.25;;;176.13;;
55461;SDS011;41327;45.102;20.624;2024-01-11T08:24:24;174.18;;;161.90;;
55461;SDS011;41327;45.102;20.624;2024-01-11T08:26:50;206.50;;;194.43;;
55461;SDS011;41327;45.102;20.624;2024-01-11T08:29:16;153.13;;;143.02;;
55461;SDS011;41327;45.102;20.624;2024-01-11T08:31:44;191.63;;;179.07;;
55461;SDS011;41327;45.102;20.624;2024-01-11T08:34:09;143.40;;;132.43;;
55461;SDS011;41327;45.102;20.624;2024-01-11T08:36:35;148.95;;;136.18;;
55461;SDS011;41327;45.102;20.624;2024-01-11T08:39:02;125.35;;;116.15;;
55461;SDS011;41327;45.102;20.624;2024-01-11T08:41:30;180.20;;;167.38;;
55461;SDS011;41327;45.102;20.624;2024-01-11T08:43:56;153.43;;;141.20;;
55461;SDS011;41327;45.102;20.624;2024-01-11T08:46:24;160.88;;;150.13;;
55461;SDS011;41327;45.102;20.624;2024-01-11T08:48:51;183.07;;;170.88;;
55461;SDS011;41327;45.102;20.624;2024-01-11T08:51:17;147.82;;;137.07;;
55461;SDS011;41327;45.102;20.624;2024-01-11T08:53:44;169.68;;;157.68;;
55461;SDS011;41327;45.102;20.624;2024-01-11T08:56:09;132.10;;;123.00;;
55461;SDS011;41327;45.102;20.624;2024-01-11T08:58:35;171.38;;;159.75;;
55461;SDS011;41327;45.102;20.624;2024-01-11T09:01:01;220.90;;;206.75;;
55461;SDS011;41327;45.102;20.624;2024-01-11T09:03:28;141.82;;;131.68;;
55461;SDS011;41327;45.102;20.624;2024-01-11T09:05:53;137.07;;;126.57;;
55461;SDS011;41327;45.102;20.624;2024-01-11T09:08:22;174.90;;;162.90;;
55461;SDS011;41327;45.102;20.624;2024-01-11T09:10:48;123.05;;;114.15;;
55461;SDS011;41327;45.102;20.624;2024-01-11T09:13:14;179.30;;;167.32;;
55461;SDS011;41327;45.102;20.624;2024-01-11T09:15:41;330.67;;;282.98;;
55461;SDS011;41327;45.102;20.624;2024-01-11T09:18:08;175.18;;;160.38;;
55461;SDS011;41327;45.102;20.624;2024-01-11T09:20:34;163.55;;;153.30;;
55461;SDS011;41327;45.102;20.624;2024-01-11T09:23:12;187.35;;;175.43;;
55461;SDS011;41327;45.102;20.624;2024-01-11T09:25:41;254.23;;;239.60;;
55461;SDS011;41327;45.102;20.624;2024-01-11T09:28:07;215.60;;;201.70;;
55461;SDS011;41327;45.102;20.624;2024-01-11T09:30:35;200.85;;;187.35;;
55461;SDS011;41327;45.102;20.624;2024-01-11T09:33:01;199.43;;;186.95;;
55461;SDS011;41327;45.102;20.624;2024-01-11T09:35:58;224.32;;;207.05;;
55461;SDS011;41327;45.102;20.624;2024-01-11T09:38:28;185.63;;;173.85;;
55461;SDS011;41327;45.102;20.624;2024-01-11T09:41:09;161.55;;;150.73;;
55461;SDS011;41327;45.102;20.624;2024-01-11T09:43:36;203.73;;;191.15;;
55461;SDS011;41327;45.102;20.624;2024-01-11T09:46:05;156.93;;;145.85;;
55461;SDS011;41327;45.102;20.624;2024-01-11T09:48:34;142.77;;;131.10;;
55461;SDS011;41327;45.102;20.624;2024-01-11T09:51:01;137.98;;;127.00;;
55461;SDS011;41327;45.102;20.624;2024-01-11T09:53:29;167.63;;;155.35;;
55461;SDS011;41327;45.102;20.624;2024-01-11T09:55:58;151.50;;;139.68;;
55461;SDS011;41327;45.102;20.624;2024-01-11T09:58:24;132.20;;;120.47;;
55461;SDS011;41327;45.102;20.624;2024-01-11T10:00:53;147.70;;;135.73;;
55461;SDS011;41327;45.102;20.624;2024-01-11T10:03:21;130.63;;;120.13;;
55461;SDS011;41327;45.102;20.624;2024-01-11T10:05:49;109.30;;;100.07;;
55461;SDS011;41327;45.102;20.624;2024-01-11T10:08:19;112.15;;;102.65;;
55461;SDS011;41327;45.102;20.624;2024-01-11T10:10:47;146.30;;;135.02;;
55461;SDS011;41327;45.102;20.624;2024-01-11T10:13:14;112.40;;;103.30;;
55461;SDS011;41327;45.102;20.624;2024-01-11T10:15:41;89.80;;;81.90;;
55461;SDS011;41327;45.102;20.624;2024-01-11T10:18:08;95.70;;;86.60;;
55461;SDS011;41327;45.102;20.624;2024-01-11T10:20:34;125.57;;;115.18;;
55461;SDS011;41327;45.102;20.624;2024-01-11T10:22:59;104.18;;;94.88;;
55461;SDS011;41327;45.102;20.624;2024-01-11T10:25:26;134.63;;;125.35;;
55461;SDS011;41327;45.102;20.624;2024-01-11T10:27:52;117.38;;;108.95;;
55461;SDS011;41327;45.102;20.624;2024-01-11T10:30:18;111.82;;;100.78;;
55461;SDS011;41327;45.102;20.624;2024-01-11T10:32:46;95.35;;;86.47;;
55461;SDS011;41327;45.102;20.624;2024-01-11T10:35:12;88.43;;;80.55;;
55461;SDS011;41327;45.102;20.624;2024-01-11T10:37:38;80.13;;;72.10;;
55461;SDS011;41327;45.102;20.624;2024-01-11T10:40:06;83.25;;;74.45;;
55461;SDS011;41327;45.102;20.624;2024-01-11T10:42:44;130.60;;;119.18;;
55461;SDS011;41327;45.102;20.624;2024-01-11T10:45:15;130.40;;;120.27;;
55461;SDS011;41327;45.102;20.624;2024-01-11T10:47:55;178.75;;;166.50;;
55461;SDS011;41327;45.102;20.624;2024-01-11T10:50:22;139.43;;;127.57;;
55461;SDS011;41327;45.102;20.624;2024-01-11T10:55:45;154.90;;;143.43;;
55461;SDS011;41327;45.102;20.624;2024-01-11T10:58:11;139.90;;;128.15;;
55461;SDS011;41327;45.102;20.624;2024-01-11T11:00:37;158.88;;;146.75;;
55461;SDS011;41327;45.102;20.624;2024-01-11T11:03:04;130.63;;;118.95;;
55461;SDS011;41327;45.102;20.624;2024-01-11T11:05:31;114.30;;;104.75;;
55461;SDS011;41327;45.102;20.624;2024-01-11T11:08:00;101.93;;;92.15;;
55461;SDS011;41327;45.102;20.624;2024-01-11T11:10:27;153.45;;;142.52;;
55461;SDS011;41327;45.102;20.624;2024-01-11T11:12:53;160.57;;;148.32;;
55461;SDS011;41327;45.102;20.624;2024-01-11T11:15:21;150.63;;;137.90;;
55461;SDS011;41327;45.102;20.624;2024-01-11T11:17:49;156.23;;;143.90;;
55461;SDS011;41327;45.102;20.624;2024-01-11T11:20:15;119.30;;;108.65;;
55461;SDS011;41327;45.102;20.624;2024-01-11T11:22:41;150.45;;;138.30;;
55461;SDS011;41327;45.102;20.624;2024-01-11T11:25:10;180.02;;;165.50;;
55461;SDS011;41327;45.102;20.624;2024-01-11T11:27:48;231.52;;;215.98;;
55461;SDS011;41327;45.102;20.624;2024-01-11T11:30:14;263.08;;;246.00;;
55461;SDS011;41327;45.102;20.624;2024-01-11T11:32:43;185.40;;;169.43;;
55461;SDS011;41327;45.102;20.624;2024-01-11T11:35:09;141.20;;;129.80;;
55461;SDS011;41327;45.102;20.624;2024-01-11T11:37:38;147.88;;;135.73;;
55461;SDS011;41327;45.102;20.624;2024-01-11T11:40:07;141.95;;;131.90;;
55461;SDS011;41327;45.102;20.624;2024-01-11T11:42:34;166.55;;;155.10;;
55461;SDS011;41327;45.102;20.624;2024-01-11T11:45:00;142.80;;;131.90;;
55461;SDS011;41327;45.102;20.624;2024-01-11T11:47:33;110.22;;;100.70;;
55461;SDS011;41327;45.102;20.624;2024-01-11T11:50:03;106.18;;;96.82;;
55461;SDS011;41327;45.102;20.624;2024-01-11T11:52:33;162.88;;;151.15;;
55461;SDS011;41327;45.102;20.624;2024-01-11T11:55:02;138.20;;;127.80;;
55461;SDS011;41327;45.102;20.624;2024-01-11T11:57:28;142.65;;;131.50;;
55461;SDS011;41327;45.102;20.624;2024-01-11T11:59:57;162.80;;;151.13;;
55461;SDS011;41327;45.102;20.624;2024-01-11T12:02:30;188.00;;;175.75;;
55461;SDS011;41327;45.102;20.624;2024-01-11T12:04:56;162.93;;;151.75;;
55461;SDS011;41327;45.102;20.624;2024-01-11T12:07:21;138.63;;;126.47;;
55461;SDS011;41327;45.102;20.624;2024-01-11T12:09:48;119.20;;;109.35;;
55461;SDS011;41327;45.102;20.624;2024-01-11T12:12:14;153.85;;;142.38;;
55461;SDS011;41327;45.102;20.624;2024-01-11T12:14:42;129.75;;;120.18;;
55461;SDS011;41327;45.102;20.624;2024-01-11T12:17:08;98.70;;;89.00;;
55461;SDS011;41327;45.102;20.624;2024-01-11T12:19:34;131.88;;;120.88;;
55461;SDS011;41327;45.102;20.624;2024-01-11T12:21:59;104.60;;;95.28;;
55461;SDS011;41327;45.102;20.624;2024-01-11T12:24:25;100.57;;;91.63;;
55461;SDS011;41327;45.102;20.624;2024-01-11T12:26:52;94.35;;;86.53;;
55461;SDS011;41327;45.102;20.624;2024-01-11T12:29:19;91.88;;;83.05;;
55461;SDS011;41327;45.102;20.624;2024-01-11T12:31:45;96.82;;;87.32;;
55461;SDS011;41327;45.102;20.624;2024-01-11T12:34:14;92.97;;;85.18;;
55461;SDS011;41327;45.102;20.624;2024-01-11T12:36:40;101.43;;;93.65;;
55461;SDS011;41327;45.102;20.624;2024-01-11T12:39:07;104.60;;;96.03;;
55461;SDS011;41327;45.102;20.624;2024-01-11T12:41:35;166.48;;;154.35;;
55461;SDS011;41327;45.102;20.624;2024-01-11T12:44:01;105.28;;;96.10;;
55461;SDS011;41327;45.102;20.624;2024-01-11T12:46:27;117.45;;;107.13;;
55461;SDS011;41327;45.102;20.624;2024-01-11T12:48:53;134.95;;;124.78;;
55461;SDS011;41327;45.102;20.624;2024-01-11T12:51:19;152.30;;;140.65;;
55461;SDS011;41327;45.102;20.624;2024-01-11T12:53:45;150.88;;;140.45;;
55461;SDS011;41327;45.102;20.624;2024-01-11T12:56:12;207.50;;;195.07;;
55461;SDS011;41327;45.102;20.624;2024-01-11T12:58:40;180.18;;;165.73;;
55461;SDS011;41327;45.102;20.624;2024-01-11T13:01:07;205.55;;;190.77;;
55461;SDS011;41327;45.102;20.624;2024-01-11T13:03:37;179.95;;;168.20;;
55461;SDS011;41327;45.102;20.624;2024-01-11T13:06:04;210.40;;;196.15;;
55461;SDS011;41327;45.102;20.624;2024-01-11T13:08:34;216.80;;;202.75;;
55461;SDS011;41327;45.102;20.624;2024-01-11T13:11:01;172.98;;;161.63;;
55461;SDS011;41327;45.102;20.624;2024-01-11T13:13:32;153.02;;;141.20;;
55461;SDS011;41327;45.102;20.624;2024-01-11T13:15:59;165.40;;;154.05;;
55461;SDS011;41327;45.102;20.624;2024-01-11T13:18:25;181.23;;;168.68;;
55461;SDS011;41327;45.102;20.624;2024-01-11T13:20:50;163.82;;;150.90;;
55461;SDS011;41327;45.102;20.624;2024-01-11T13:23:17;183.18;;;171.32;;
55461;SDS011;41327;45.102;20.624;2024-01-11T13:25:45;184.35;;;172.32;;
55461;SDS011;41327;45.102;20.624;2024-01-11T13:28:11;209.00;;;195.82;;
55461;SDS011;41327;45.102;20.624;2024-01-11T13:30:38;193.13;;;179.43;;
55461;SDS011;41327;45.102;20.624;2024-01-11T13:33:07;222.57;;;207.90;;
55461;SDS011;41327;45.102;20.624;2024-01-11T13:35:37;216.73;;;201.32;;
55461;SDS011;41327;45.102;20.624;2024-01-11T13:38:03;185.15;;;172.45;;
55461;SDS011;41327;45.102;20.624;2024-01-11T13:40:32;205.23;;;191.68;;
55461;SDS011;41327;45.102;20.624;2024-01-11T13:42:58;184.85;;;173.38;;
55461;SDS011;41327;45.102;20.624;2024-01-11T13:45:24;197.40;;;183.95;;
55461;SDS011;41327;45.102;20.624;2024-01-11T13:47:51;229.35;;;214.85;;